sensor_id;sensor_type;location;lat;lon;timestamp;P1;durP1;ratioP1;P2;durP2;ratioP2
56037;SDS011;41907;47.848;9.000;2022-08-27T00:01:20;2.90;;;2.42;;
56037;SDS011;41907;47.848;9.000;2022-08-27T00:03:45;3.97;;;2.25;;
56037;SDS011;41907;47.848;9.000;2022-08-27T00:06:12;2.55;;;2.35;;
56037;SDS011;41907;47.848;9.000;2022-08-27T00:08:40;2.10;;;1.90;;
56037;SDS011;41907;47.848;9.000;2022-08-27T00:11:07;3.17;;;2.50;;
56037;SDS011;41907;47.848;9.000;2022-08-27T00:13:33;3.30;;;2.40;;
56037;SDS011;41907;47.848;9.000;2022-08-27T00:15:58;2.85;;;2.30;;
56037;SDS011;41907;47.848;9.000;2022-08-27T00:18:24;3.35;;;2.33;;
56037;SDS011;41907;47.848;9.000;2022-08-27T00:20:50;3.53;;;2.78;;
56037;SDS011;41907;47.848;9.000;2022-08-27T00:23:15;3.33;;;2.50;;
56037;SDS011;41907;47.848;9.000;2022-08-27T00:25:40;3.72;;;2.97;;
56037;SDS011;41907;47.848;9.000;2022-08-27T00:28:06;2.88;;;2.47;;
56037;SDS011;41907;47.848;9.000;2022-08-27T00:30:31;2.95;;;2.65;;
56037;SDS011;41907;47.848;9.000;2022-08-27T00:32:57;3.55;;;2.63;;
56037;SDS011;41907;47.848;9.000;2022-08-27T00:35:22;3.88;;;2.97;;
56037;SDS011;41907;47.848;9.000;2022-08-27T00:37:47;3.28;;;2.97;;
56037;SDS011;41907;47.848;9.000;2022-08-27T00:40:15;2.88;;;2.50;;
56037;SDS011;41907;47.848;9.000;2022-08-27T00:42:42;3.88;;;2.78;;
56037;SDS011;41907;47.848;9.000;2022-08-27T00:45:10;3.15;;;2.55;;
56037;SDS011;41907;47.848;9.000;2022-08-27T00:47:39;6.35;;;2.75;;
56037;SDS011;41907;47.848;9.000;2022-08-27T00:50:14;3.60;;;2.60;;
56037;SDS011;41907;47.848;9.000;2022-08-27T00:52:46;2.72;;;2.30;;
56037;SDS011;41907;47.848;9.000;2022-08-27T00:55:18;3.75;;;2.30;;
56037;SDS011;41907;47.848;9.000;2022-08-27T00:57:49;3.03;;;2.30;;
56037;SDS011;41907;47.848;9.000;2022-08-27T01:00:21;3.33;;;2.40;;
56037;SDS011;41907;47.848;9.000;2022-08-27T01:02:47;3.25;;;2.17;;
56037;SDS011;41907;47.848;9.000;2022-08-27T01:05:15;2.33;;;1.85;;
56037;SDS011;41907;47.848;9.000;2022-08-27T01:07:46;3.97;;;2.40;;
56037;SDS011;41907;47.848;9.000;2022-08-27T01:10:16;4.13;;;2.67;;
56037;SDS011;41907;47.848;9.000;2022-08-27T01:12:44;4.20;;;2.20;;
56037;SDS011;41907;47.848;9.000;2022-08-27T01:15:14;2.85;;;2.28;;
56037;SDS011;41907;47.848;9.000;2022-08-27T01:17:41;4.75;;;2.50;;
56037;SDS011;41907;47.848;9.000;2022-08-27T01:20:11;2.75;;;2.45;;
56037;SDS011;41907;47.848;9.000;2022-08-27T01:22:56;3.00;;;2.55;;
56037;SDS011;41907;47.848;9.000;2022-08-27T01:25:28;3.05;;;2.72;;
56037;SDS011;41907;47.848;9.000;2022-08-27T01:27:58;3.05;;;2.65;;
56037;SDS011;41907;47.848;9.000;2022-08-27T01:30:24;3.55;;;2.55;;
56037;SDS011;41907;47.848;9.000;2022-08-27T01:32:51;3.70;;;2.58;;
56037;SDS011;41907;47.848;9.000;2022-08-27T01:35:17;3.70;;;2.97;;
56037;SDS011;41907;47.848;9.000;2022-08-27T01:37:44;5.03;;;3.30;;
56037;SDS011;41907;47.848;9.000;2022-08-27T01:40:13;4.18;;;3.00;;
56037;SDS011;41907;47.848;9.000;2022-08-27T01:42:40;5.63;;;4.10;;
56037;SDS011;41907;47.848;9.000;2022-08-27T01:45:13;5.82;;;3.55;;
56037;SDS011;41907;47.848;9.000;2022-08-27T01:48:01;5.15;;;3.85;;
56037;SDS011;41907;47.848;9.000;2022-08-27T01:50:29;7.72;;;4.55;;
56037;SDS011;41907;47.848;9.000;2022-08-27T01:52:56;12.45;;;4.90;;
56037;SDS011;41907;47.848;9.000;2022-08-27T01:55:25;7.53;;;4.53;;
56037;SDS011;41907;47.848;9.000;2022-08-27T01:57:51;9.50;;;4.65;;
56037;SDS011;41907;47.848;9.000;2022-08-27T02:00:24;7.05;;;4.57;;
56037;SDS011;41907;47.848;9.000;2022-08-27T02:02:52;6.38;;;4.53;;
56037;SDS011;41907;47.848;9.000;2022-08-27T02:05:19;6.07;;;4.70;;
56037;SDS011;41907;47.848;9.000;2022-08-27T02:07:44;6.78;;;4.43;;
56037;SDS011;41907;47.848;9.000;2022-08-27T02:10:12;6.28;;;4.60;;
56037;SDS011;41907;47.848;9.000;2022-08-27T02:12:41;8.30;;;4.82;;
56037;SDS011;41907;47.848;9.000;2022-08-27T02:15:06;9.15;;;5.13;;
56037;SDS011;41907;47.848;9.000;2022-08-27T02:17:32;6.20;;;4.18;;
56037;SDS011;41907;47.848;9.000;2022-08-27T02:19:58;7.13;;;4.97;;
56037;SDS011;41907;47.848;9.000;2022-08-27T02:22:24;7.57;;;5.18;;
56037;SDS011;41907;47.848;9.000;2022-08-27T02:24:50;7.13;;;4.50;;
56037;SDS011;41907;47.848;9.000;2022-08-27T02:27:15;7.13;;;4.05;;
56037;SDS011;41907;47.848;9.000;2022-08-27T02:29:42;6.10;;;3.88;;
56037;SDS011;41907;47.848;9.000;2022-08-27T02:32:07;7.05;;;4.18;;
56037;SDS011;41907;47.848;9.000;2022-08-27T02:34:33;5.68;;;4.57;;
56037;SDS011;41907;47.848;9.000;2022-08-27T02:36:58;6.28;;;4.57;;
56037;SDS011;41907;47.848;9.000;2022-08-27T02:39:23;7.63;;;4.95;;
56037;SDS011;41907;47.848;9.000;2022-08-27T02:41:49;6.13;;;4.10;;
56037;SDS011;41907;47.848;9.000;2022-08-27T02:44:15;6.88;;;4.75;;
56037;SDS011;41907;47.848;9.000;2022-08-27T02:46:41;6.32;;;4.93;;
56037;SDS011;41907;47.848;9.000;2022-08-27T02:49:07;5.97;;;4.40;;
56037;SDS011;41907;47.848;9.000;2022-08-27T02:51:33;5.40;;;4.55;;
56037;SDS011;41907;47.848;9.000;2022-08-27T02:53:59;14.77;;;9.13;;
56037;SDS011;41907;47.848;9.000;2022-08-27T02:56:26;6.28;;;4.88;;
56037;SDS011;41907;47.848;9.000;2022-08-27T02:58:52;6.45;;;4.38;;
56037;SDS011;41907;47.848;9.000;2022-08-27T03:01:18;6.65;;;3.80;;
56037;SDS011;41907;47.848;9.000;2022-08-27T03:03:43;6.05;;;4.20;;
56037;SDS011;41907;47.848;9.000;2022-08-27T03:06:09;5.30;;;4.15;;
56037;SDS011;41907;47.848;9.000;2022-08-27T03:08:34;11.15;;;6.45;;
56037;SDS011;41907;47.848;9.000;2022-08-27T03:11:00;12.75;;;7.53;;
56037;SDS011;41907;47.848;9.000;2022-08-27T03:13:26;10.95;;;7.07;;
56037;SDS011;41907;47.848;9.000;2022-08-27T03:15:52;15.55;;;9.75;;
56037;SDS011;41907;47.848;9.000;2022-08-27T03:18:17;15.25;;;8.93;;
56037;SDS011;41907;47.848;9.000;2022-08-27T03:20:53;13.50;;;8.73;;
56037;SDS011;41907;47.848;9.000;2022-08-27T03:23:21;14.57;;;8.65;;
56037;SDS011;41907;47.848;9.000;2022-08-27T03:25:53;16.02;;;9.07;;
56037;SDS011;41907;47.848;9.000;2022-08-27T03:28:22;18.58;;;9.00;;
56037;SDS011;41907;47.848;9.000;2022-08-27T03:30:53;20.10;;;10.73;;
56037;SDS011;41907;47.848;9.000;2022-08-27T03:33:24;23.30;;;11.45;;
56037;SDS011;41907;47.848;9.000;2022-08-27T03:35:50;20.63;;;11.88;;
56037;SDS011;41907;47.848;9.000;2022-08-27T03:38:16;18.25;;;10.68;;
56037;SDS011;41907;47.848;9.000;2022-08-27T03:40:42;21.30;;;10.50;;
56037;SDS011;41907;47.848;9.000;2022-08-27T03:43:09;12.35;;;7.97;;
56037;SDS011;41907;47.848;9.000;2022-08-27T03:45:36;14.27;;;7.95;;
56037;SDS011;41907;47.848;9.000;2022-08-27T03:48:02;15.65;;;6.93;;
56037;SDS011;41907;47.848;9.000;2022-08-27T03:50:30;12.85;;;7.32;;
56037;SDS011;41907;47.848;9.000;2022-08-27T03:52:56;9.77;;;6.82;;
56037;SDS011;41907;47.848;9.000;2022-08-27T03:55:21;8.48;;;5.93;;
56037;SDS011;41907;47.848;9.000;2022-08-27T03:57:47;6.10;;;4.97;;
56037;SDS011;41907;47.848;9.000;2022-08-27T04:00:13;8.75;;;4.70;;
56037;SDS011;41907;47.848;9.000;2022-08-27T04:02:39;7.25;;;4.97;;
56037;SDS011;41907;47.848;9.000;2022-08-27T04:05:07;6.97;;;4.53;;
56037;SDS011;41907;47.848;9.000;2022-08-27T04:07:37;5.22;;;4.57;;
56037;SDS011;41907;47.848;9.000;2022-08-27T04:10:04;6.57;;;4.90;;
56037;SDS011;41907;47.848;9.000;2022-08-27T04:12:30;5.70;;;4.75;;
56037;SDS011;41907;47.848;9.000;2022-08-27T04:14:56;7.15;;;4.07;;
56037;SDS011;41907;47.848;9.000;2022-08-27T04:17:21;6.20;;;4.40;;
56037;SDS011;41907;47.848;9.000;2022-08-27T04:19:46;4.60;;;3.55;;
56037;SDS011;41907;47.848;9.000;2022-08-27T04:22:12;4.45;;;3.67;;
56037;SDS011;41907;47.848;9.000;2022-08-27T04:24:38;5.35;;;4.18;;
56037;SDS011;41907;47.848;9.000;2022-08-27T04:27:04;4.70;;;3.53;;
56037;SDS011;41907;47.848;9.000;2022-08-27T04:29:30;6.00;;;4.57;;
56037;SDS011;41907;47.848;9.000;2022-08-27T04:31:56;10.88;;;4.90;;
56037;SDS011;41907;47.848;9.000;2022-08-27T04:34:21;6.20;;;4.57;;
56037;SDS011;41907;47.848;9.000;2022-08-27T04:36:47;5.80;;;4.65;;
56037;SDS011;41907;47.848;9.000;2022-08-27T04:39:14;6.55;;;4.38;;
56037;SDS011;41907;47.848;9.000;2022-08-27T04:41:39;7.75;;;4.00;;
56037;SDS011;41907;47.848;9.000;2022-08-27T04:44:06;5.90;;;4.38;;
56037;SDS011;41907;47.848;9.000;2022-08-27T04:46:34;11.32;;;4.18;;
56037;SDS011;41907;47.848;9.000;2022-08-27T04:49:03;6.53;;;4.50;;
56037;SDS011;41907;47.848;9.000;2022-08-27T04:51:31;6.78;;;4.38;;
56037;SDS011;41907;47.848;9.000;2022-08-27T04:53:57;5.20;;;3.63;;
56037;SDS011;41907;47.848;9.000;2022-08-27T04:56:22;7.18;;;4.65;;
56037;SDS011;41907;47.848;9.000;2022-08-27T04:58:49;3.47;;;2.88;;
56037;SDS011;41907;47.848;9.000;2022-08-27T05:01:16;5.43;;;3.47;;
56037;SDS011;41907;47.848;9.000;2022-08-27T05:03:43;5.05;;;3.80;;
56037;SDS011;41907;47.848;9.000;2022-08-27T05:06:09;5.72;;;3.85;;
56037;SDS011;41907;47.848;9.000;2022-08-27T05:08:34;5.97;;;4.50;;
56037;SDS011;41907;47.848;9.000;2022-08-27T05:11:00;6.18;;;4.05;;
56037;SDS011;41907;47.848;9.000;2022-08-27T05:13:26;6.30;;;4.63;;
56037;SDS011;41907;47.848;9.000;2022-08-27T05:15:59;7.40;;;4.35;;
56037;SDS011;41907;47.848;9.000;2022-08-27T05:18:29;6.50;;;4.22;;
56037;SDS011;41907;47.848;9.000;2022-08-27T05:20:55;5.88;;;4.25;;
56037;SDS011;41907;47.848;9.000;2022-08-27T05:23:22;7.35;;;5.15;;
56037;SDS011;41907;47.848;9.000;2022-08-27T05:25:48;8.20;;;5.43;;
56037;SDS011;41907;47.848;9.000;2022-08-27T05:28:16;7.55;;;5.00;;
56037;SDS011;41907;47.848;9.000;2022-08-27T05:30:45;6.00;;;4.70;;
56037;SDS011;41907;47.848;9.000;2022-08-27T05:33:13;7.15;;;5.13;;
56037;SDS011;41907;47.848;9.000;2022-08-27T05:35:40;5.60;;;4.63;;
56037;SDS011;41907;47.848;9.000;2022-08-27T05:38:06;6.35;;;4.90;;
56037;SDS011;41907;47.848;9.000;2022-08-27T05:40:31;7.20;;;5.30;;
56037;SDS011;41907;47.848;9.000;2022-08-27T05:42:57;5.78;;;4.40;;
56037;SDS011;41907;47.848;9.000;2022-08-27T05:45:23;5.95;;;4.80;;
56037;SDS011;41907;47.848;9.000;2022-08-27T05:47:48;5.78;;;4.60;;
56037;SDS011;41907;47.848;9.000;2022-08-27T05:50:14;5.13;;;3.80;;
56037;SDS011;41907;47.848;9.000;2022-08-27T05:52:39;4.65;;;3.47;;
56037;SDS011;41907;47.848;9.000;2022-08-27T05:55:06;6.40;;;3.72;;
56037;SDS011;41907;47.848;9.000;2022-08-27T05:57:33;4.88;;;3.38;;
56037;SDS011;41907;47.848;9.000;2022-08-27T05:59:58;4.85;;;3.88;;
56037;SDS011;41907;47.848;9.000;2022-08-27T06:02:42;5.80;;;4.38;;
56037;SDS011;41907;47.848;9.000;2022-08-27T06:05:09;21.75;;;14.30;;
56037;SDS011;41907;47.848;9.000;2022-08-27T06:07:35;16.23;;;10.70;;
56037;SDS011;41907;47.848;9.000;2022-08-27T06:10:00;5.57;;;4.20;;
56037;SDS011;41907;47.848;9.000;2022-08-27T06:12:26;4.18;;;2.95;;
56037;SDS011;41907;47.848;9.000;2022-08-27T06:14:52;4.10;;;3.45;;
56037;SDS011;41907;47.848;9.000;2022-08-27T06:17:17;3.90;;;3.03;;
56037;SDS011;41907;47.848;9.000;2022-08-27T06:19:42;5.65;;;4.10;;
56037;SDS011;41907;47.848;9.000;2022-08-27T06:22:09;4.18;;;3.40;;
56037;SDS011;41907;47.848;9.000;2022-08-27T06:24:35;5.18;;;3.85;;
56037;SDS011;41907;47.848;9.000;2022-08-27T06:27:03;5.13;;;4.03;;
56037;SDS011;41907;47.848;9.000;2022-08-27T06:29:28;4.88;;;4.22;;
56037;SDS011;41907;47.848;9.000;2022-08-27T06:31:54;5.97;;;4.05;;
56037;SDS011;41907;47.848;9.000;2022-08-27T06:34:20;6.97;;;4.70;;
56037;SDS011;41907;47.848;9.000;2022-08-27T06:36:45;15.05;;;9.18;;
56037;SDS011;41907;47.848;9.000;2022-08-27T06:39:11;13.30;;;8.88;;
56037;SDS011;41907;47.848;9.000;2022-08-27T06:41:39;27.30;;;17.17;;
56037;SDS011;41907;47.848;9.000;2022-08-27T06:44:06;6.38;;;5.10;;
56037;SDS011;41907;47.848;9.000;2022-08-27T06:46:32;7.63;;;4.35;;
56037;SDS011;41907;47.848;9.000;2022-08-27T06:48:58;8.20;;;4.75;;
56037;SDS011;41907;47.848;9.000;2022-08-27T06:51:28;6.60;;;4.28;;
56037;SDS011;41907;47.848;9.000;2022-08-27T06:53:58;4.90;;;3.83;;
56037;SDS011;41907;47.848;9.000;2022-08-27T06:56:25;4.68;;;3.45;;
56037;SDS011;41907;47.848;9.000;2022-08-27T06:58:55;5.72;;;4.03;;
56037;SDS011;41907;47.848;9.000;2022-08-27T07:01:24;13.07;;;7.88;;
56037;SDS011;41907;47.848;9.000;2022-08-27T07:03:55;16.55;;;11.13;;
56037;SDS011;41907;47.848;9.000;2022-08-27T07:06:22;12.15;;;8.27;;
56037;SDS011;41907;47.848;9.000;2022-08-27T07:08:49;14.27;;;9.10;;
56037;SDS011;41907;47.848;9.000;2022-08-27T07:11:15;15.75;;;9.70;;
56037;SDS011;41907;47.848;9.000;2022-08-27T07:13:41;10.00;;;6.85;;
56037;SDS011;41907;47.848;9.000;2022-08-27T07:16:08;20.73;;;10.70;;
56037;SDS011;41907;47.848;9.000;2022-08-27T07:18:35;17.30;;;9.43;;
56037;SDS011;41907;47.848;9.000;2022-08-27T07:21:01;15.75;;;8.80;;
56037;SDS011;41907;47.848;9.000;2022-08-27T07:23:30;13.80;;;8.00;;
56037;SDS011;41907;47.848;9.000;2022-08-27T07:25:57;13.15;;;8.88;;
56037;SDS011;41907;47.848;9.000;2022-08-27T07:28:23;14.38;;;10.80;;
56037;SDS011;41907;47.848;9.000;2022-08-27T07:30:48;10.30;;;7.35;;
56037;SDS011;41907;47.848;9.000;2022-08-27T07:33:14;9.50;;;6.07;;
56037;SDS011;41907;47.848;9.000;2022-08-27T07:35:40;7.35;;;5.47;;
56037;SDS011;41907;47.848;9.000;2022-08-27T07:38:05;8.18;;;6.95;;
56037;SDS011;41907;47.848;9.000;2022-08-27T07:40:30;8.10;;;6.25;;
56037;SDS011;41907;47.848;9.000;2022-08-27T07:42:56;16.00;;;12.18;;
56037;SDS011;41907;47.848;9.000;2022-08-27T07:45:44;16.40;;;10.35;;
56037;SDS011;41907;47.848;9.000;2022-08-27T07:48:12;13.35;;;10.27;;
56037;SDS011;41907;47.848;9.000;2022-08-27T07:50:39;18.83;;;15.65;;
56037;SDS011;41907;47.848;9.000;2022-08-27T07:53:05;15.18;;;12.93;;
56037;SDS011;41907;47.848;9.000;2022-08-27T07:55:31;16.40;;;13.90;;
56037;SDS011;41907;47.848;9.000;2022-08-27T07:58:00;18.80;;;14.60;;
56037;SDS011;41907;47.848;9.000;2022-08-27T08:00:25;16.40;;;11.82;;
56037;SDS011;41907;47.848;9.000;2022-08-27T08:02:52;14.13;;;10.00;;
56037;SDS011;41907;47.848;9.000;2022-08-27T08:05:18;11.77;;;9.07;;
56037;SDS011;41907;47.848;9.000;2022-08-27T08:07:43;11.90;;;8.40;;
56037;SDS011;41907;47.848;9.000;2022-08-27T08:10:09;9.52;;;7.57;;
56037;SDS011;41907;47.848;9.000;2022-08-27T08:12:36;13.35;;;9.77;;
56037;SDS011;41907;47.848;9.000;2022-08-27T08:15:03;10.50;;;8.02;;
56037;SDS011;41907;47.848;9.000;2022-08-27T08:17:31;11.93;;;9.05;;
56037;SDS011;41907;47.848;9.000;2022-08-27T08:19:58;10.32;;;7.97;;
56037;SDS011;41907;47.848;9.000;2022-08-27T08:22:23;13.55;;;9.80;;
56037;SDS011;41907;47.848;9.000;2022-08-27T08:24:49;37.42;;;23.52;;
56037;SDS011;41907;47.848;9.000;2022-08-27T08:27:14;12.68;;;8.15;;
56037;SDS011;41907;47.848;9.000;2022-08-27T08:29:39;8.35;;;5.38;;
56037;SDS011;41907;47.848;9.000;2022-08-27T08:32:05;11.60;;;5.70;;
56037;SDS011;41907;47.848;9.000;2022-08-27T08:34:32;11.65;;;6.57;;
56037;SDS011;41907;47.848;9.000;2022-08-27T08:36:59;9.50;;;5.18;;
56037;SDS011;41907;47.848;9.000;2022-08-27T08:39:25;8.45;;;6.50;;
56037;SDS011;41907;47.848;9.000;2022-08-27T08:41:51;10.23;;;7.00;;
56037;SDS011;41907;47.848;9.000;2022-08-27T08:44:26;10.15;;;7.30;;
56037;SDS011;41907;47.848;9.000;2022-08-27T08:54:54;13.13;;;8.02;;
56037;SDS011;41907;47.848;9.000;2022-08-27T08:57:27;12.32;;;8.48;;
56037;SDS011;41907;47.848;9.000;2022-08-27T09:00:06;10.73;;;7.90;;
56037;SDS011;41907;47.848;9.000;2022-08-27T09:02:37;13.70;;;9.52;;
56037;SDS011;41907;47.848;9.000;2022-08-27T09:05:04;12.32;;;8.52;;
56037;SDS011;41907;47.848;9.000;2022-08-27T09:07:34;13.38;;;9.35;;
56037;SDS011;41907;47.848;9.000;2022-08-27T09:12:59;15.27;;;11.15;;
56037;SDS011;41907;47.848;9.000;2022-08-27T09:15:32;15.43;;;10.70;;
56037;SDS011;41907;47.848;9.000;2022-08-27T09:18:03;24.52;;;14.93;;
56037;SDS011;41907;47.848;9.000;2022-08-27T09:20:33;21.67;;;14.32;;
56037;SDS011;41907;47.848;9.000;2022-08-27T09:23:05;28.05;;;16.70;;
56037;SDS011;41907;47.848;9.000;2022-08-27T09:25:38;16.20;;;11.95;;
56037;SDS011;41907;47.848;9.000;2022-08-27T09:28:09;16.10;;;10.90;;
56037;SDS011;41907;47.848;9.000;2022-08-27T09:31:06;27.00;;;18.67;;
56037;SDS011;41907;47.848;9.000;2022-08-27T09:33:37;25.88;;;18.60;;
56037;SDS011;41907;47.848;9.000;2022-08-27T09:36:03;29.85;;;19.83;;
56037;SDS011;41907;47.848;9.000;2022-08-27T09:38:35;21.23;;;15.05;;
56037;SDS011;41907;47.848;9.000;2022-08-27T09:41:08;14.32;;;9.70;;
56037;SDS011;41907;47.848;9.000;2022-08-27T09:43:41;13.27;;;9.65;;
56037;SDS011;41907;47.848;9.000;2022-08-27T09:46:18;11.95;;;8.95;;
56037;SDS011;41907;47.848;9.000;2022-08-27T09:48:45;10.32;;;6.88;;
56037;SDS011;41907;47.848;9.000;2022-08-27T09:51:12;9.05;;;6.60;;
56037;SDS011;41907;47.848;9.000;2022-08-27T10:01:32;15.02;;;9.15;;
56037;SDS011;41907;47.848;9.000;2022-08-27T10:04:07;15.63;;;9.32;;
56037;SDS011;41907;47.848;9.000;2022-08-27T10:06:36;24.50;;;15.63;;
56037;SDS011;41907;47.848;9.000;2022-08-27T10:09:09;15.85;;;10.57;;
56037;SDS011;41907;47.848;9.000;2022-08-27T10:11:39;13.23;;;8.88;;
56037;SDS011;41907;47.848;9.000;2022-08-27T10:24:54;14.25;;;9.15;;
56037;SDS011;41907;47.848;9.000;2022-08-27T10:30:18;13.98;;;9.00;;
56037;SDS011;41907;47.848;9.000;2022-08-27T10:41:24;12.10;;;7.85;;
56037;SDS011;41907;47.848;9.000;2022-08-27T10:44:03;9.75;;;7.07;;
56037;SDS011;41907;47.848;9.000;2022-08-27T11:00:17;5.75;;;4.30;;
56037;SDS011;41907;47.848;9.000;2022-08-27T11:05:31;10.27;;;5.70;;
56037;SDS011;41907;47.848;9.000;2022-08-27T11:10:36;9.25;;;5.70;;
56037;SDS011;41907;47.848;9.000;2022-08-27T11:13:07;5.97;;;4.20;;
56037;SDS011;41907;47.848;9.000;2022-08-27T11:15:46;5.13;;;3.88;;
56037;SDS011;41907;47.848;9.000;2022-08-27T11:18:25;4.82;;;3.45;;
56037;SDS011;41907;47.848;9.000;2022-08-27T11:21:00;4.45;;;3.08;;
56037;SDS011;41907;47.848;9.000;2022-08-27T11:23:52;3.78;;;3.05;;
56037;SDS011;41907;47.848;9.000;2022-08-27T11:26:22;3.08;;;2.67;;
56037;SDS011;41907;47.848;9.000;2022-08-27T11:28:52;3.08;;;2.38;;
56037;SDS011;41907;47.848;9.000;2022-08-27T11:36:55;2.67;;;2.10;;
56037;SDS011;41907;47.848;9.000;2022-08-27T11:42:18;3.53;;;2.45;;
56037;SDS011;41907;47.848;9.000;2022-08-27T11:45:05;2.53;;;2.20;;
56037;SDS011;41907;47.848;9.000;2022-08-27T11:47:32;3.85;;;2.67;;
56037;SDS011;41907;47.848;9.000;2022-08-27T11:50:02;4.72;;;2.45;;
56037;SDS011;41907;47.848;9.000;2022-08-27T11:52:34;5.05;;;3.30;;
56037;SDS011;41907;47.848;9.000;2022-08-27T11:57:44;3.97;;;3.15;;
56037;SDS011;41907;47.848;9.000;2022-08-27T12:02:36;3.55;;;3.05;;
56037;SDS011;41907;47.848;9.000;2022-08-27T12:05:06;4.10;;;2.95;;
56037;SDS011;41907;47.848;9.000;2022-08-27T12:07:47;4.20;;;3.03;;
56037;SDS011;41907;47.848;9.000;2022-08-27T12:10:17;7.18;;;3.45;;
56037;SDS011;41907;47.848;9.000;2022-08-27T12:12:55;5.38;;;3.80;;
56037;SDS011;41907;47.848;9.000;2022-08-27T12:21:17;5.55;;;4.18;;
56037;SDS011;41907;47.848;9.000;2022-08-27T12:29:44;7.75;;;4.45;;
56037;SDS011;41907;47.848;9.000;2022-08-27T12:32:13;5.55;;;4.47;;
56037;SDS011;41907;47.848;9.000;2022-08-27T12:37:28;7.00;;;4.82;;
56037;SDS011;41907;47.848;9.000;2022-08-27T12:39:58;6.78;;;4.07;;
56037;SDS011;41907;47.848;9.000;2022-08-27T12:42:29;7.07;;;4.85;;
56037;SDS011;41907;47.848;9.000;2022-08-27T12:44:55;6.65;;;5.05;;
56037;SDS011;41907;47.848;9.000;2022-08-27T12:47:22;5.85;;;4.65;;
56037;SDS011;41907;47.848;9.000;2022-08-27T12:49:50;4.57;;;3.75;;
56037;SDS011;41907;47.848;9.000;2022-08-27T12:52:43;5.75;;;4.43;;
56037;SDS011;41907;47.848;9.000;2022-08-27T13:01:10;6.32;;;4.05;;
56037;SDS011;41907;47.848;9.000;2022-08-27T13:03:53;6.30;;;3.60;;
56037;SDS011;41907;47.848;9.000;2022-08-27T13:06:30;6.68;;;4.28;;
56037;SDS011;41907;47.848;9.000;2022-08-27T13:09:05;3.58;;;3.20;;
56037;SDS011;41907;47.848;9.000;2022-08-27T13:11:44;4.32;;;3.75;;
56037;SDS011;41907;47.848;9.000;2022-08-27T13:14:11;4.57;;;4.03;;
56037;SDS011;41907;47.848;9.000;2022-08-27T13:16:41;3.90;;;3.47;;
56037;SDS011;41907;47.848;9.000;2022-08-27T13:19:17;4.40;;;3.28;;
56037;SDS011;41907;47.848;9.000;2022-08-27T13:21:48;4.65;;;3.50;;
56037;SDS011;41907;47.848;9.000;2022-08-27T13:24:17;5.60;;;3.75;;
56037;SDS011;41907;47.848;9.000;2022-08-27T13:26:47;4.25;;;3.50;;
56037;SDS011;41907;47.848;9.000;2022-08-27T13:29:17;4.88;;;3.65;;
56037;SDS011;41907;47.848;9.000;2022-08-27T13:31:43;4.35;;;3.33;;
56037;SDS011;41907;47.848;9.000;2022-08-27T13:34:09;4.45;;;3.90;;
56037;SDS011;41907;47.848;9.000;2022-08-27T13:36:52;5.45;;;3.90;;
56037;SDS011;41907;47.848;9.000;2022-08-27T13:39:22;6.72;;;3.88;;
56037;SDS011;41907;47.848;9.000;2022-08-27T13:41:48;4.43;;;3.88;;
56037;SDS011;41907;47.848;9.000;2022-08-27T13:44:24;5.35;;;4.35;;
56037;SDS011;41907;47.848;9.000;2022-08-27T13:46:59;5.47;;;4.43;;
56037;SDS011;41907;47.848;9.000;2022-08-27T13:49:30;5.07;;;3.85;;
56037;SDS011;41907;47.848;9.000;2022-08-27T13:52:42;4.97;;;4.10;;
56037;SDS011;41907;47.848;9.000;2022-08-27T13:54:46;5.88;;;4.70;;
56037;SDS011;41907;47.848;9.000;2022-08-27T13:57:24;5.65;;;4.22;;
56037;SDS011;41907;47.848;9.000;2022-08-27T13:59:52;6.18;;;4.43;;
56037;SDS011;41907;47.848;9.000;2022-08-27T14:02:19;5.78;;;4.40;;
56037;SDS011;41907;47.848;9.000;2022-08-27T14:04:49;5.45;;;4.47;;
56037;SDS011;41907;47.848;9.000;2022-08-27T14:08:18;4.35;;;3.42;;
56037;SDS011;41907;47.848;9.000;2022-08-27T14:13:09;3.80;;;3.42;;
56037;SDS011;41907;47.848;9.000;2022-08-27T14:15:48;4.20;;;3.25;;
56037;SDS011;41907;47.848;9.000;2022-08-27T14:18:23;4.35;;;3.80;;
56037;SDS011;41907;47.848;9.000;2022-08-27T14:20:54;4.55;;;3.70;;
56037;SDS011;41907;47.848;9.000;2022-08-27T14:23:20;3.80;;;2.42;;
56037;SDS011;41907;47.848;9.000;2022-08-27T14:25:47;3.22;;;2.60;;
56037;SDS011;41907;47.848;9.000;2022-08-27T14:28:14;2.13;;;1.73;;
56037;SDS011;41907;47.848;9.000;2022-08-27T14:30:39;3.17;;;2.63;;
56037;SDS011;41907;47.848;9.000;2022-08-27T14:33:05;2.42;;;1.85;;
56037;SDS011;41907;47.848;9.000;2022-08-27T14:35:31;2.65;;;2.13;;
56037;SDS011;41907;47.848;9.000;2022-08-27T14:37:59;2.72;;;2.33;;
56037;SDS011;41907;47.848;9.000;2022-08-27T14:40:28;3.05;;;2.53;;
56037;SDS011;41907;47.848;9.000;2022-08-27T14:42:55;3.13;;;2.72;;
56037;SDS011;41907;47.848;9.000;2022-08-27T14:45:20;5.57;;;2.10;;
56037;SDS011;41907;47.848;9.000;2022-08-27T14:47:47;2.47;;;2.17;;
56037;SDS011;41907;47.848;9.000;2022-08-27T14:50:12;2.88;;;2.22;;
56037;SDS011;41907;47.848;9.000;2022-08-27T14:52:38;5.05;;;2.40;;
56037;SDS011;41907;47.848;9.000;2022-08-27T14:55:04;2.67;;;2.40;;
56037;SDS011;41907;47.848;9.000;2022-08-27T14:57:31;3.47;;;2.78;;
56037;SDS011;41907;47.848;9.000;2022-08-27T14:59:56;3.92;;;2.83;;
56037;SDS011;41907;47.848;9.000;2022-08-27T15:02:21;4.35;;;2.35;;
56037;SDS011;41907;47.848;9.000;2022-08-27T15:04:47;5.65;;;2.42;;
56037;SDS011;41907;47.848;9.000;2022-08-27T15:07:13;3.50;;;2.85;;
56037;SDS011;41907;47.848;9.000;2022-08-27T15:09:39;3.85;;;2.78;;
56037;SDS011;41907;47.848;9.000;2022-08-27T15:12:04;4.75;;;3.10;;
56037;SDS011;41907;47.848;9.000;2022-08-27T15:14:31;3.63;;;2.78;;
56037;SDS011;41907;47.848;9.000;2022-08-27T15:16:59;3.65;;;2.95;;
56037;SDS011;41907;47.848;9.000;2022-08-27T15:19:25;3.45;;;2.78;;
56037;SDS011;41907;47.848;9.000;2022-08-27T15:21:52;3.17;;;2.75;;
56037;SDS011;41907;47.848;9.000;2022-08-27T15:24:24;3.20;;;2.60;;
56037;SDS011;41907;47.848;9.000;2022-08-27T15:26:52;3.88;;;2.80;;
56037;SDS011;41907;47.848;9.000;2022-08-27T15:29:21;3.85;;;3.22;;
56037;SDS011;41907;47.848;9.000;2022-08-27T15:31:47;4.72;;;3.30;;
56037;SDS011;41907;47.848;9.000;2022-08-27T15:34:13;4.65;;;3.30;;
56037;SDS011;41907;47.848;9.000;2022-08-27T15:36:38;4.63;;;3.58;;
56037;SDS011;41907;47.848;9.000;2022-08-27T15:39:04;4.43;;;3.08;;
56037;SDS011;41907;47.848;9.000;2022-08-27T15:41:30;3.83;;;3.00;;
56037;SDS011;41907;47.848;9.000;2022-08-27T15:43:56;4.03;;;2.78;;
56037;SDS011;41907;47.848;9.000;2022-08-27T15:46:22;3.88;;;3.10;;
56037;SDS011;41907;47.848;9.000;2022-08-27T15:48:49;3.75;;;2.90;;
56037;SDS011;41907;47.848;9.000;2022-08-27T15:51:14;3.00;;;2.65;;
56037;SDS011;41907;47.848;9.000;2022-08-27T15:53:41;3.60;;;2.95;;
56037;SDS011;41907;47.848;9.000;2022-08-27T15:56:07;4.38;;;2.95;;
56037;SDS011;41907;47.848;9.000;2022-08-27T15:58:34;4.60;;;2.58;;
56037;SDS011;41907;47.848;9.000;2022-08-27T16:01:02;3.95;;;2.85;;
56037;SDS011;41907;47.848;9.000;2022-08-27T16:03:31;4.45;;;2.80;;
56037;SDS011;41907;47.848;9.000;2022-08-27T16:05:57;3.78;;;3.13;;
56037;SDS011;41907;47.848;9.000;2022-08-27T16:08:22;6.38;;;3.08;;
56037;SDS011;41907;47.848;9.000;2022-08-27T16:10:48;4.15;;;2.97;;
56037;SDS011;41907;47.848;9.000;2022-08-27T16:13:13;3.72;;;2.70;;
56037;SDS011;41907;47.848;9.000;2022-08-27T16:15:39;4.78;;;2.72;;
56037;SDS011;41907;47.848;9.000;2022-08-27T16:18:05;2.75;;;2.50;;
56037;SDS011;41907;47.848;9.000;2022-08-27T16:20:31;4.70;;;2.88;;
56037;SDS011;41907;47.848;9.000;2022-08-27T16:22:56;4.20;;;2.55;;
56037;SDS011;41907;47.848;9.000;2022-08-27T16:25:21;2.78;;;2.30;;
56037;SDS011;41907;47.848;9.000;2022-08-27T16:27:48;3.42;;;2.45;;